sensor_id;sensor_type;location;lat;lon;timestamp;temperature;humidity
14873;DHT22;7528;48.576;19.122;2024-02-26T00:31:38;9.40;99.90
14873;DHT22;7528;48.576;19.122;2024-02-26T00:59:29;9.60;99.90
14873;DHT22;7528;48.576;19.122;2024-02-26T01:04:31;10.20;99.90
14873;DHT22;7528;48.576;19.122;2024-02-26T01:09:35;11.10;99.90
14873;DHT22;7528;48.576;19.122;2024-02-26T01:14:38;11.50;99.90
14873;DHT22;7528;48.576;19.122;2024-02-26T01:19:41;11.70;99.90
14873;DHT22;7528;48.576;19.122;2024-02-26T01:24:44;11.80;99.90
14873;DHT22;7528;48.576;19.122;2024-02-26T01:29:48;11.90;99.90
14873;DHT22;7528;48.576;19.122;2024-02-26T01:34:50;12.00;99.30
14873;DHT22;7528;48.576;19.122;2024-02-26T01:39:52;12.00;99.10
14873;DHT22;7528;48.576;19.122;2024-02-26T01:44:56;12.00;98.70
14873;DHT22;7528;48.576;19.122;2024-02-26T01:49:59;12.10;98.50
14873;DHT22;7528;48.576;19.122;2024-02-26T01:55:01;12.10;98.20
14873;DHT22;7528;48.576;19.122;2024-02-26T02:00:08;12.00;98.00
14873;DHT22;7528;48.576;19.122;2024-02-26T02:05:12;12.00;98.10
14873;DHT22;7528;48.576;19.122;2024-02-26T02:10:15;12.00;98.40
14873;DHT22;7528;48.576;19.122;2024-02-26T02:15:20;12.10;98.40
14873;DHT22;7528;48.576;19.122;2024-02-26T02:20:26;12.10;98.10
14873;DHT22;7528;48.576;19.122;2024-02-26T02:25:33;12.10;97.70
14873;DHT22;7528;48.576;19.122;2024-02-26T02:30:37;12.10;97.60
14873;DHT22;7528;48.576;19.122;2024-02-26T02:35:41;12.10;97.80
14873;DHT22;7528;48.576;19.122;2024-02-26T02:40:43;12.10;97.70
14873;DHT22;7528;48.576;19.122;2024-02-26T02:45:46;12.10;97.50
14873;DHT22;7528;48.576;19.122;2024-02-26T02:50:50;12.10;97.60
14873;DHT22;7528;48.576;19.122;2024-02-26T02:55:52;12.10;97.60
14873;DHT22;7528;48.576;19.122;2024-02-26T03:00:55;12.10;97.30
14873;DHT22;7528;48.576;19.122;2024-02-26T03:05:59;12.10;97.30
14873;DHT22;7528;48.576;19.122;2024-02-26T03:11:01;12.10;97.30
14873;DHT22;7528;48.576;19.122;2024-02-26T03:16:05;12.10;97.30
14873;DHT22;7528;48.576;19.122;2024-02-26T03:21:09;12.10;97.60
14873;DHT22;7528;48.576;19.122;2024-02-26T03:26:11;12.10;97.80
14873;DHT22;7528;48.576;19.122;2024-02-26T03:31:15;12.10;97.60
14873;DHT22;7528;48.576;19.122;2024-02-26T03:36:19;12.10;97.40
14873;DHT22;7528;48.576;19.122;2024-02-26T03:41:22;12.10;97.40
14873;DHT22;7528;48.576;19.122;2024-02-26T03:46:25;12.10;97.50
14873;DHT22;7528;48.576;19.122;2024-02-26T03:51:29;12.10;97.40
14873;DHT22;7528;48.576;19.122;2024-02-26T03:56:32;12.10;97.30
14873;DHT22;7528;48.576;19.122;2024-02-26T04:01:34;12.20;97.30
14873;DHT22;7528;48.576;19.122;2024-02-26T04:06:38;12.10;97.30
14873;DHT22;7528;48.576;19.122;2024-02-26T04:11:41;12.10;97.20
14873;DHT22;7528;48.576;19.122;2024-02-26T04:16:44;12.10;97.20
14873;DHT22;7528;48.576;19.122;2024-02-26T04:21:48;12.10;97.50
14873;DHT22;7528;48.576;19.122;2024-02-26T04:26:50;12.10;97.70
14873;DHT22;7528;48.576;19.122;2024-02-26T04:31:53;12.20;97.70
14873;DHT22;7528;48.576;19.122;2024-02-26T04:36:57;12.20;97.40
14873;DHT22;7528;48.576;19.122;2024-02-26T04:41:59;12.10;97.50
14873;DHT22;7528;48.576;19.122;2024-02-26T04:47:04;12.10;97.50
14873;DHT22;7528;48.576;19.122;2024-02-26T04:52:10;12.10;97.60
14873;DHT22;7528;48.576;19.122;2024-02-26T04:57:12;12.10;97.60
14873;DHT22;7528;48.576;19.122;2024-02-26T05:02:14;12.10;98.00
14873;DHT22;7528;48.576;19.122;2024-02-26T05:07:18;12.00;97.90
14873;DHT22;7528;48.576;19.122;2024-02-26T05:12:21;12.10;97.80
14873;DHT22;7528;48.576;19.122;2024-02-26T05:17:23;12.10;97.80
14873;DHT22;7528;48.576;19.122;2024-02-26T05:22:27;12.10;97.60
14873;DHT22;7528;48.576;19.122;2024-02-26T05:27:29;12.10;97.10
14873;DHT22;7528;48.576;19.122;2024-02-26T05:32:32;12.10;97.40
14873;DHT22;7528;48.576;19.122;2024-02-26T05:37:35;12.10;97.70
14873;DHT22;7528;48.576;19.122;2024-02-26T05:42:38;12.00;97.80
14873;DHT22;7528;48.576;19.122;2024-02-26T05:47:40;12.00;97.80
14873;DHT22;7528;48.576;19.122;2024-02-26T05:52:45;12.10;97.90
14873;DHT22;7528;48.576;19.122;2024-02-26T05:57:47;12.10;97.70
14873;DHT22;7528;48.576;19.122;2024-02-26T06:02:50;12.10;97.80
14873;DHT22;7528;48.576;19.122;2024-02-26T06:07:54;12.10;98.10
14873;DHT22;7528;48.576;19.122;2024-02-26T06:12:57;12.10;98.20
14873;DHT22;7528;48.576;19.122;2024-02-26T06:17:59;12.10;98.40
14873;DHT22;7528;48.576;19.122;2024-02-26T06:23:03;12.20;98.20
14873;DHT22;7528;48.576;19.122;2024-02-26T06:28:06;12.30;98.20
14873;DHT22;7528;48.576;19.122;2024-02-26T06:33:08;12.30;98.00
14873;DHT22;7528;48.576;19.122;2024-02-26T06:38:13;12.10;98.30
14873;DHT22;7528;48.576;19.122;2024-02-26T06:43:15;12.20;98.70
14873;DHT22;7528;48.576;19.122;2024-02-26T06:48:18;12.20;98.50
14873;DHT22;7528;48.576;19.122;2024-02-26T06:53:22;12.30;98.20
14873;DHT22;7528;48.576;19.122;2024-02-26T06:58:25;12.30;98.20
14873;DHT22;7528;48.576;19.122;2024-02-26T07:03:27;12.30;98.20
14873;DHT22;7528;48.576;19.122;2024-02-26T07:08:32;12.40;98.20
14873;DHT22;7528;48.576;19.122;2024-02-26T07:13:36;12.40;98.10
14873;DHT22;7528;48.576;19.122;2024-02-26T07:18:39;12.40;98.40
14873;DHT22;7528;48.576;19.122;2024-02-26T07:23:43;12.40;99.20
14873;DHT22;7528;48.576;19.122;2024-02-26T07:28:45;12.40;98.90
14873;DHT22;7528;48.576;19.122;2024-02-26T07:33:48;12.40;99.40
14873;DHT22;7528;48.576;19.122;2024-02-26T07:38:52;12.30;99.70
14873;DHT22;7528;48.576;19.122;2024-02-26T07:43:55;12.30;99.70
14873;DHT22;7528;48.576;19.122;2024-02-26T07:48:57;12.30;99.90
14873;DHT22;7528;48.576;19.122;2024-02-26T07:54:01;12.40;99.90
14873;DHT22;7528;48.576;19.122;2024-02-26T07:59:03;12.40;99.40
14873;DHT22;7528;48.576;19.122;2024-02-26T08:04:06;12.40;99.50
14873;DHT22;7528;48.576;19.122;2024-02-26T08:09:09;12.50;99.40
14873;DHT22;7528;48.576;19.122;2024-02-26T08:14:13;12.50;99.90
14873;DHT22;7528;48.576;19.122;2024-02-26T08:19:15;12.60;99.60
14873;DHT22;7528;48.576;19.122;2024-02-26T08:24:20;12.60;99.50
14873;DHT22;7528;48.576;19.122;2024-02-26T08:29:22;12.70;99.20
14873;DHT22;7528;48.576;19.122;2024-02-26T08:34:24;12.80;98.90
14873;DHT22;7528;48.576;19.122;2024-02-26T08:39:28;12.70;99.10
14873;DHT22;7528;48.576;19.122;2024-02-26T08:44:30;12.80;99.50
14873;DHT22;7528;48.576;19.122;2024-02-26T08:49:33;12.90;99.00
14873;DHT22;7528;48.576;19.122;2024-02-26T08:54:36;13.00;98.90
14873;DHT22;7528;48.576;19.122;2024-02-26T08:59:39;13.00;98.90
14873;DHT22;7528;48.576;19.122;2024-02-26T09:04:41;13.10;99.10
14873;DHT22;7528;48.576;19.122;2024-02-26T09:09:45;13.20;99.10
14873;DHT22;7528;48.576;19.122;2024-02-26T09:14:47;13.30;99.40
14873;DHT22;7528;48.576;19.122;2024-02-26T09:19:49;13.30;98.90
14873;DHT22;7528;48.576;19.122;2024-02-26T09:24:53;13.30;99.20
14873;DHT22;7528;48.576;19.122;2024-02-26T09:29:55;13.50;99.10
14873;DHT22;7528;48.576;19.122;2024-02-26T09:34:58;13.50;99.10
14873;DHT22;7528;48.576;19.122;2024-02-26T09:40:02;13.60;99.10
14873;DHT22;7528;48.576;19.122;2024-02-26T09:45:06;13.60;98.80
14873;DHT22;7528;48.576;19.122;2024-02-26T09:50:13;13.60;99.10
14873;DHT22;7528;48.576;19.122;2024-02-26T09:55:20;13.70;98.90
14873;DHT22;7528;48.576;19.122;2024-02-26T10:00:22;13.70;99.00
14873;DHT22;7528;48.576;19.122;2024-02-26T10:05:26;13.70;99.80
14873;DHT22;7528;48.576;19.122;2024-02-26T10:10:30;13.80;99.20
14873;DHT22;7528;48.576;19.122;2024-02-26T10:15:34;13.80;99.50
14873;DHT22;7528;48.576;19.122;2024-02-26T10:20:37;13.80;99.50
14873;DHT22;7528;48.576;19.122;2024-02-26T10:25:52;13.90;99.60
14873;DHT22;7528;48.576;19.122;2024-02-26T10:30:55;14.00;99.80
14873;DHT22;7528;48.576;19.122;2024-02-26T10:35:58;14.00;99.30
14873;DHT22;7528;48.576;19.122;2024-02-26T10:41:03;14.00;99.80
14873;DHT22;7528;48.576;19.122;2024-02-26T10:46:05;14.00;99.40
14873;DHT22;7528;48.576;19.122;2024-02-26T10:51:11;14.00;99.50
14873;DHT22;7528;48.576;19.122;2024-02-26T10:56:16;14.00;99.90
14873;DHT22;7528;48.576;19.122;2024-02-26T11:01:20;13.90;99.90
14873;DHT22;7528;48.576;19.122;2024-02-26T11:06:23;14.00;99.90
14873;DHT22;7528;48.576;19.122;2024-02-26T11:11:29;14.10;99.90
14873;DHT22;7528;48.576;19.122;2024-02-26T11:16:34;14.20;99.90
14873;DHT22;7528;48.576;19.122;2024-02-26T11:21:37;14.30;99.90
14873;DHT22;7528;48.576;19.122;2024-02-26T11:26:46;14.20;99.90
14873;DHT22;7528;48.576;19.122;2024-02-26T11:31:52;14.20;99.90
14873;DHT22;7528;48.576;19.122;2024-02-26T11:36:54;14.10;99.90
14873;DHT22;7528;48.576;19.122;2024-02-26T11:42:05;14.10;99.90
14873;DHT22;7528;48.576;19.122;2024-02-26T11:47:11;14.20;99.90
14873;DHT22;7528;48.576;19.122;2024-02-26T11:52:14;14.20;99.90
14873;DHT22;7528;48.576;19.122;2024-02-26T11:57:26;14.30;99.90
14873;DHT22;7528;48.576;19.122;2024-02-26T12:02:40;14.40;99.90
14873;DHT22;7528;48.576;19.122;2024-02-26T12:07:45;14.40;99.90
14873;DHT22;7528;48.576;19.122;2024-02-26T12:12:49;14.40;99.90
14873;DHT22;7528;48.576;19.122;2024-02-26T12:17:52;14.40;99.90
14873;DHT22;7528;48.576;19.122;2024-02-26T12:22:56;14.40;99.90
14873;DHT22;7528;48.576;19.122;2024-02-26T12:28:00;14.40;99.90
14873;DHT22;7528;48.576;19.122;2024-02-26T12:33:02;14.40;99.90
14873;DHT22;7528;48.576;19.122;2024-02-26T12:38:05;14.50;99.90
14873;DHT22;7528;48.576;19.122;2024-02-26T12:43:09;14.50;99.90
14873;DHT22;7528;48.576;19.122;2024-02-26T12:48:14;14.50;99.90
14873;DHT22;7528;48.576;19.122;2024-02-26T12:53:16;14.50;99.90
14873;DHT22;7528;48.576;19.122;2024-02-26T12:58:21;14.50;99.90
14873;DHT22;7528;48.576;19.122;2024-02-26T13:03:25;14.50;99.90
14873;DHT22;7528;48.576;19.122;2024-02-26T13:08:28;14.70;99.90
14873;DHT22;7528;48.576;19.122;2024-02-26T13:13:32;14.70;99.90
14873;DHT22;7528;48.576;19.122;2024-02-26T13:18:34;14.70;99.90
14873;DHT22;7528;48.576;19.122;2024-02-26T13:23:37;14.80;99.90
14873;DHT22;7528;48.576;19.122;2024-02-26T13:28:41;14.70;99.90
14873;DHT22;7528;48.576;19.122;2024-02-26T13:33:46;14.80;99.90
14873;DHT22;7528;48.576;19.122;2024-02-26T13:38:53;14.90;99.90
14873;DHT22;7528;48.576;19.122;2024-02-26T13:43:57;14.90;99.90
14873;DHT22;7528;48.576;19.122;2024-02-26T13:48:59;14.90;99.90
14873;DHT22;7528;48.576;19.122;2024-02-26T13:54:02;15.00;99.90
14873;DHT22;7528;48.576;19.122;2024-02-26T13:59:06;15.00;99.90
14873;DHT22;7528;48.576;19.122;2024-02-26T14:04:08;14.90;99.90
14873;DHT22;7528;48.576;19.122;2024-02-26T14:09:11;15.00;99.40
14873;DHT22;7528;48.576;19.122;2024-02-26T14:14:21;14.90;99.30
14873;DHT22;7528;48.576;19.122;2024-02-26T14:19:23;14.90;99.10
14873;DHT22;7528;48.576;19.122;2024-02-26T14:24:25;14.90;99.10
14873;DHT22;7528;48.576;19.122;2024-02-26T14:29:29;14.90;99.00
14873;DHT22;7528;48.576;19.122;2024-02-26T14:34:31;14.90;98.90
14873;DHT22;7528;48.576;19.122;2024-02-26T14:39:34;14.90;99.00
14873;DHT22;7528;48.576;19.122;2024-02-26T14:44:37;14.90;98.70
14873;DHT22;7528;48.576;19.122;2024-02-26T14:49:40;14.90;98.70
14873;DHT22;7528;48.576;19.122;2024-02-26T14:54:42;14.90;99.10
14873;DHT22;7528;48.576;19.122;2024-02-26T14:59:46;14.90;99.00
14873;DHT22;7528;48.576;19.122;2024-02-26T15:04:48;14.90;99.00
14873;DHT22;7528;48.576;19.122;2024-02-26T15:09:50;15.00;99.20
14873;DHT22;7528;48.576;19.122;2024-02-26T15:14:58;15.10;98.80
14873;DHT22;7528;48.576;19.122;2024-02-26T15:20:01;15.00;98.10
14873;DHT22;7528;48.576;19.122;2024-02-26T15:25:04;15.00;98.10
14873;DHT22;7528;48.576;19.122;2024-02-26T15:30:09;15.00;97.60
14873;DHT22;7528;48.576;19.122;2024-02-26T15:35:12;15.00;97.50
14873;DHT22;7528;48.576;19.122;2024-02-26T15:40:14;15.00;97.80
14873;DHT22;7528;48.576;19.122;2024-02-26T15:45:18;15.00;98.40
14873;DHT22;7528;48.576;19.122;2024-02-26T15:50:20;14.90;98.50
14873;DHT22;7528;48.576;19.122;2024-02-26T15:55:23;14.90;98.60
14873;DHT22;7528;48.576;19.122;2024-02-26T16:00:26;14.80;98.50
14873;DHT22;7528;48.576;19.122;2024-02-26T16:55:36;11.70;99.90
14873;DHT22;7528;48.576;19.122;2024-02-26T17:00:39;12.40;99.90
14873;DHT22;7528;48.576;19.122;2024-02-26T17:05:41;13.10;99.90
14873;DHT22;7528;48.576;19.122;2024-02-26T17:10:45;13.60;99.90
14873;DHT22;7528;48.576;19.122;2024-02-26T17:15:47;13.80;99.90
14873;DHT22;7528;48.576;19.122;2024-02-26T17:20:49;13.90;99.90
14873;DHT22;7528;48.576;19.122;2024-02-26T17:25:53;13.90;99.90
14873;DHT22;7528;48.576;19.122;2024-02-26T17:30:55;14.00;99.90
14873;DHT22;7528;48.576;19.122;2024-02-26T17:35:58;14.00;99.90
14873;DHT22;7528;48.576;19.122;2024-02-26T17:41:02;14.10;99.90
14873;DHT22;7528;48.576;19.122;2024-02-26T17:46:06;14.10;99.90
14873;DHT22;7528;48.576;19.122;2024-02-26T17:51:09;14.10;99.90
14873;DHT22;7528;48.576;19.122;2024-02-26T17:56:13;14.00;99.90
14873;DHT22;7528;48.576;19.122;2024-02-26T18:01:17;13.90;99.90
14873;DHT22;7528;48.576;19.122;2024-02-26T18:06:19;13.90;99.90
14873;DHT22;7528;48.576;19.122;2024-02-26T18:11:22;13.90;99.90
14873;DHT22;7528;48.576;19.122;2024-02-26T18:16:25;13.90;99.80
14873;DHT22;7528;48.576;19.122;2024-02-26T18:21:27;13.90;99.90
14873;DHT22;7528;48.576;19.122;2024-02-26T18:26:31;13.80;99.90
14873;DHT22;7528;48.576;19.122;2024-02-26T18:31:35;13.70;99.90
14873;DHT22;7528;48.576;19.122;2024-02-26T18:36:42;13.80;99.90
14873;DHT22;7528;48.576;19.122;2024-02-26T18:41:46;13.80;99.90
14873;DHT22;7528;48.576;19.122;2024-02-26T18:46:48;13.70;99.90
14873;DHT22;7528;48.576;19.122;2024-02-26T18:51:51;13.70;99.90
14873;DHT22;7528;48.576;19.122;2024-02-26T18:56:55;13.60;99.90
14873;DHT22;7528;48.576;19.122;2024-02-26T19:01:57;13.50;99.90
14873;DHT22;7528;48.576;19.122;2024-02-26T19:07:00;13.50;99.60
14873;DHT22;7528;48.576;19.122;2024-02-26T19:12:04;13.40;99.70
14873;DHT22;7528;48.576;19.122;2024-02-26T19:17:06;13.40;99.50
14873;DHT22;7528;48.576;19.122;2024-02-26T19:22:09;13.40;99.20
14873;DHT22;7528;48.576;19.122;2024-02-26T19:27:13;13.40;99.10
14873;DHT22;7528;48.576;19.122;2024-02-26T19:32:16;13.40;99.10
14873;DHT22;7528;48.576;19.122;2024-02-26T19:37:19;13.20;99.90
14873;DHT22;7528;48.576;19.122;2024-02-26T19:42:22;13.20;99.90
14873;DHT22;7528;48.576;19.122;2024-02-26T19:47:25;13.10;99.70
14873;DHT22;7528;48.576;19.122;2024-02-26T19:52:27;13.00;99.30
14873;DHT22;7528;48.576;19.122;2024-02-26T19:57:31;12.90;99.10
14873;DHT22;7528;48.576;19.122;2024-02-26T20:02:34;12.90;98.90
14873;DHT22;7528;48.576;19.122;2024-02-26T20:07:37;12.90;98.30
14873;DHT22;7528;48.576;19.122;2024-02-26T20:12:41;12.80;98.80
14873;DHT22;7528;48.576;19.122;2024-02-26T20:17:44;12.70;98.30
14873;DHT22;7528;48.576;19.122;2024-02-26T20:22:46;12.60;98.90
14873;DHT22;7528;48.576;19.122;2024-02-26T20:27:50;12.50;99.00
14873;DHT22;7528;48.576;19.122;2024-02-26T20:32:52;12.50;98.90
14873;DHT22;7528;48.576;19.122;2024-02-26T20:37:54;12.60;98.40
14873;DHT22;7528;48.576;19.122;2024-02-26T20:42:58;12.70;98.30
14873;DHT22;7528;48.576;19.122;2024-02-26T20:48:00;12.60;98.50
14873;DHT22;7528;48.576;19.122;2024-02-26T20:53:03;12.50;98.70
14873;DHT22;7528;48.576;19.122;2024-02-26T20:58:07;12.50;98.70
14873;DHT22;7528;48.576;19.122;2024-02-26T21:03:09;12.60;98.50
14873;DHT22;7528;48.576;19.122;2024-02-26T21:08:13;12.50;98.50
14873;DHT22;7528;48.576;19.122;2024-02-26T21:13:17;12.40;98.90
14873;DHT22;7528;48.576;19.122;2024-02-26T21:18:20;12.30;99.40
14873;DHT22;7528;48.576;19.122;2024-02-26T21:23:24;12.30;99.20
14873;DHT22;7528;48.576;19.122;2024-02-26T21:28:27;12.30;98.90
14873;DHT22;7528;48.576;19.122;2024-02-26T21:33:30;12.10;99.90
14873;DHT22;7528;48.576;19.122;2024-02-26T21:38:32;12.20;99.30
14873;DHT22;7528;48.576;19.122;2024-02-26T21:43:36;12.20;98.30
14873;DHT22;7528;48.576;19.122;2024-02-26T21:48:38;12.00;98.70
14873;DHT22;7528;48.576;19.122;2024-02-26T21:53:41;12.00;99.10
14873;DHT22;7528;48.576;19.122;2024-02-26T21:58:44;12.00;98.50
14873;DHT22;7528;48.576;19.122;2024-02-26T22:03:47;12.00;98.30
14873;DHT22;7528;48.576;19.122;2024-02-26T22:08:49;12.00;98.00
14873;DHT22;7528;48.576;19.122;2024-02-26T22:13:53;12.00;97.80
14873;DHT22;7528;48.576;19.122;2024-02-26T22:18:55;12.00;97.90
14873;DHT22;7528;48.576;19.122;2024-02-26T22:24:01;11.90;98.40
14873;DHT22;7528;48.576;19.122;2024-02-26T22:29:05;11.90;99.30
14873;DHT22;7528;48.576;19.122;2024-02-26T22:34:08;11.80;99.10
14873;DHT22;7528;48.576;19.122;2024-02-26T22:39:10;11.70;98.60
14873;DHT22;7528;48.576;19.122;2024-02-26T22:44:15;11.70;99.40
14873;DHT22;7528;48.576;19.122;2024-02-26T22:49:18;11.70;99.00
14873;DHT22;7528;48.576;19.122;2024-02-26T22:54:21;11.70;99.00
14873;DHT22;7528;48.576;19.122;2024-02-26T22:59:24;11.70;99.00
14873;DHT22;7528;48.576;19.122;2024-02-26T23:04:27;11.70;98.90
14873;DHT22;7528;48.576;19.122;2024-02-26T23:09:29;11.70;98.20
14873;DHT22;7528;48.576;19.122;2024-02-26T23:14:33;11.70;98.20
14873;DHT22;7528;48.576;19.122;2024-02-26T23:19:36;11.60;99.10
14873;DHT22;7528;48.576;19.122;2024-02-26T23:24:38;11.50;99.80
14873;DHT22;7528;48.576;19.122;2024-02-26T23:29:42;11.50;99.90
14873;DHT22;7528;48.576;19.122;2024-02-26T23:34:45;11.60;99.50
14873;DHT22;7528;48.576;19.122;2024-02-26T23:39:47;11.60;99.50
14873;DHT22;7528;48.576;19.122;2024-02-26T23:44:51;11.60;99.50
14873;DHT22;7528;48.576;19.122;2024-02-26T23:49:53;11.50;99.70
14873;DHT22;7528;48.576;19.122;2024-02-26T23:54:56;11.50;99.50
